Time;durP1;ratioP1;P1;durP2;ratioP2;P2;SDS_P1;SDS_P2;PMS_P1;PMS_P2;Temp;Humidity;BMP_temperature;BMP_pressure;BME280_temperature;BME280_humidity;BME280_pressure;Samples;Min_cycle;Max_cycle;Signal;HPM_P1;HPM_P2
2022/01/05 00:00:59;;;;;;;1.47;0.60;;;;;;;5.82;84.60;98183.97;4991760;28;20230;-76
2022/01/05 00:03:24;;;;;;;0.88;0.80;;;;;;;5.80;83.94;98183.22;4996517;28;20334;-76
2022/01/05 00:05:50;;;;;;;1.17;0.90;;;;;;;5.78;83.49;98180.75;4992083;28;20211;-75
2022/01/05 00:08:18;;;;;;;1.00;0.90;;;;;;;5.75;83.07;98166.16;4980680;28;20207;-74
2022/01/05 00:10:43;;;;;;;0.70;0.70;;;;;;;5.75;82.68;98145.31;4992035;28;20957;-75
2022/01/05 00:13:09;;;;;;;1.13;0.70;;;;;;;5.75;82.74;98150.53;4992019;28;20227;-76
2022/01/05 00:15:34;;;;;;;0.80;0.80;;;;;;;5.74;82.47;98141.00;4990439;28;20203;-75
2022/01/05 00:18:01;;;;;;;0.70;0.70;;;;;;;5.73;81.84;98147.16;4992261;28;20289;-74
2022/01/05 00:20:26;;;;;;;0.60;0.60;;;;;;;5.70;82.49;98144.78;4989518;28;20242;-74
2022/01/05 00:22:52;;;;;;;0.70;0.60;;;;;;;5.70;81.92;98154.38;4993246;28;20256;-75
2022/01/05 00:25:18;;;;;;;1.00;0.77;;;;;;;5.68;82.04;98159.66;4991142;28;20259;-74
2022/01/05 00:27:43;;;;;;;0.80;0.80;;;;;;;5.68;81.88;98154.47;4996126;28;20485;-74
2022/01/05 00:30:09;;;;;;;0.90;0.80;;;;;;;5.70;82.07;98151.75;4989959;28;20203;-74
2022/01/05 00:32:35;;;;;;;0.70;0.50;;;;;;;5.71;81.47;98156.03;5003024;23;20270;-81
2022/01/05 00:35:00;;;;;;;0.70;0.70;;;;;;;5.71;81.63;98138.63;4961652;28;20288;-81
2022/01/05 00:37:26;;;;;;;1.47;0.60;;;;;;;5.73;81.58;98136.75;4970273;28;20222;-80
2022/01/05 00:39:51;;;;;;;0.80;0.77;;;;;;;5.74;81.75;98134.97;4977512;28;20270;-80
2022/01/05 00:42:16;;;;;;;0.90;0.60;;;;;;;5.76;81.34;98144.34;4980622;28;20215;-82
2022/01/05 00:44:42;;;;;;;0.70;0.60;;;;;;;5.79;81.28;98145.91;4976790;28;20208;-80
2022/01/05 00:47:07;;;;;;;0.70;0.60;;;;;;;5.79;81.44;98155.53;4975519;28;20191;-81
2022/01/05 00:49:33;;;;;;;3.27;0.70;;;;;;;5.80;81.54;98159.78;4974974;28;20215;-81
2022/01/05 00:51:58;;;;;;;0.70;0.60;;;;;;;5.80;81.67;98163.22;4976200;28;21195;-80
2022/01/05 00:54:23;;;;;;;1.00;0.60;;;;;;;5.81;81.67;98177.09;4977452;28;20234;-80
2022/01/05 00:56:49;;;;;;;0.90;0.60;;;;;;;5.81;81.59;98170.13;4975538;28;20219;-80
2022/01/05 00:59:14;;;;;;;0.80;0.60;;;;;;;5.83;81.20;98180.41;4977826;28;21126;-81
2022/01/05 01:01:40;;;;;;;1.00;0.60;;;;;;;5.90;81.42;98174.69;4979320;28;20496;-79
2022/01/05 01:04:05;;;;;;;1.00;0.80;;;;;;;5.92;81.08;98162.41;4974509;28;20487;-81
2022/01/05 01:06:31;;;;;;;0.60;0.60;;;;;;;5.94;80.98;98150.13;4976648;28;20204;-81
2022/01/05 01:08:57;;;;;;;0.90;0.60;;;;;;;5.92;80.63;98131.13;4980386;28;20982;-80
2022/01/05 01:11:22;;;;;;;3.17;0.70;;;;;;;5.94;80.96;98128.44;4975647;28;20319;-81
2022/01/05 01:13:48;;;;;;;3.20;0.70;;;;;;;5.94;80.79;98123.22;4964097;28;20227;-79
2022/01/05 01:16:13;;;;;;;2.50;0.70;;;;;;;5.95;80.39;98125.72;4977660;28;20207;-80
2022/01/05 01:18:39;;;;;;;0.70;0.50;;;;;;;5.94;80.27;98124.06;4978051;28;20282;-80
2022/01/05 01:21:04;;;;;;;0.60;0.50;;;;;;;5.94;80.53;98133.66;4977385;28;20335;-81
2022/01/05 01:23:30;;;;;;;0.60;0.60;;;;;;;5.94;80.47;98138.84;4978085;28;20226;-80
2022/01/05 01:25:55;;;;;;;0.83;0.60;;;;;;;5.94;80.37;98144.94;4964781;28;20209;-79
2022/01/05 01:28:21;;;;;;;0.77;0.77;;;;;;;5.93;80.57;98153.66;4944711;28;20292;-80
2022/01/05 01:30:48;;;;;;;0.90;0.70;;;;;;;5.94;80.71;98164.91;4935110;29;20256;-80
2022/01/05 01:33:13;;;;;;;0.70;0.70;;;;;;;5.95;80.61;98166.59;4937548;29;20252;-80
2022/01/05 01:35:39;;;;;;;0.80;0.70;;;;;;;5.96;80.65;98163.03;4936751;29;20218;-80
2022/01/05 01:38:05;;;;;;;0.70;0.60;;;;;;;5.96;80.55;98166.47;4937021;29;21099;-81
2022/01/05 01:40:31;;;;;;;0.60;0.60;;;;;;;5.97;80.27;98170.78;4936832;29;20488;-80
2022/01/05 01:42:56;;;;;;;0.60;0.60;;;;;;;5.98;80.27;98164.63;4934069;29;20861;-80
2022/01/05 01:45:21;;;;;;;0.70;0.53;;;;;;;6.00;80.46;98166.31;4936038;29;20554;-80
2022/01/05 01:47:47;;;;;;;0.70;0.50;;;;;;;6.00;80.13;98153.28;4933740;29;20198;-80
2022/01/05 01:50:13;;;;;;;1.10;0.63;;;;;;;6.01;80.24;98154.94;4935473;29;20219;-80
2022/01/05 01:52:39;;;;;;;0.70;0.60;;;;;;;6.03;80.16;98166.09;4935927;28;20263;-80
2022/01/05 01:55:05;;;;;;;0.70;0.60;;;;;;;6.03;80.10;98166.09;4935825;29;20209;-81
2022/01/05 01:57:38;;;;;;;2.05;0.82;;;;;;;6.03;80.19;98168.69;4934221;29;20316;-80
2022/01/05 02:00:05;;;;;;;0.95;0.60;;;;;;;6.05;79.99;98169.41;4937941;29;20212;-80
2022/01/05 02:02:38;;;;;;;1.45;0.70;;;;;;;6.05;79.73;98180.69;4936972;29;20328;-80
2022/01/05 02:05:05;;;;;;;1.45;0.80;;;;;;;6.08;79.74;98177.03;4945703;29;20217;-81
2022/01/05 02:07:30;;;;;;;0.70;0.60;;;;;;;6.09;79.81;98189.13;4960782;28;20217;-80
2022/01/05 02:09:56;;;;;;;0.70;0.60;;;;;;;6.11;79.54;98192.47;4944713;29;20220;-80
2022/01/05 02:12:26;;;;;;;1.67;0.87;;;;;;;6.14;79.59;98193.09;4942750;29;20236;-80
2022/01/05 02:14:55;;;;;;;1.23;0.60;;;;;;;6.14;79.01;98180.03;4946140;29;20764;-80
2022/01/05 02:17:25;;;;;;;1.00;0.60;;;;;;;6.16;79.19;98191.22;4943653;28;20584;-79
2022/01/05 02:19:50;;;;;;;0.60;0.52;;;;;;;6.17;78.93;98202.47;4939650;29;20213;-80
2022/01/05 02:22:16;;;;;;;1.47;0.60;;;;;;;6.20;79.12;98202.25;4940271;29;20532;-80
2022/01/05 02:24:47;;;;;;;0.70;0.60;;;;;;;6.21;79.23;98203.91;4942405;29;20215;-80
2022/01/05 02:27:15;;;;;;;0.70;0.60;;;;;;;6.22;79.19;98207.38;4940906;29;20729;-80
2022/01/05 02:29:41;;;;;;;0.98;0.68;;;;;;;6.22;79.04;98204.78;4940276;29;20902;-80
2022/01/05 02:32:07;;;;;;;0.77;0.70;;;;;;;6.28;79.16;98215.59;4942387;29;20484;-80
2022/01/05 02:34:32;;;;;;;1.73;0.70;;;;;;;6.28;78.80;98215.59;4937573;29;20245;-81
2022/01/05 02:36:58;;;;;;;1.17;0.80;;;;;;;6.28;78.66;98220.81;4941408;29;20461;-80
2022/01/05 02:39:23;;;;;;;0.80;0.60;;;;;;;6.28;78.39;98223.41;4938139;29;20221;-80
2022/01/05 02:41:50;;;;;;;0.70;0.60;;;;;;;6.28;78.60;98228.63;4940315;29;20221;-80
2022/01/05 02:44:15;;;;;;;1.05;0.70;;;;;;;6.27;78.39;98226.97;4940290;29;20247;-80
2022/01/05 02:46:40;;;;;;;0.70;0.60;;;;;;;6.25;78.88;98225.41;4938019;29;20208;-80
2022/01/05 02:49:06;;;;;;;0.90;0.70;;;;;;;6.25;78.79;98234.06;4939471;29;20201;-79
2022/01/05 02:51:31;;;;;;;0.87;0.60;;;;;;;6.25;78.88;98230.63;4941040;29;20206;-80
2022/01/05 02:53:57;;;;;;;0.97;0.60;;;;;;;6.24;79.04;98231.56;4939248;29;20661;-80
2022/01/05 02:56:22;;;;;;;0.77;0.60;;;;;;;6.23;79.09;98225.50;4940066;29;20237;-80
2022/01/05 02:58:48;;;;;;;1.43;0.60;;;;;;;6.23;79.34;98228.13;4942400;29;20805;-80
2022/01/05 03:01:13;;;;;;;1.10;0.70;;;;;;;6.23;79.48;98225.50;4940566;29;20975;-80
2022/01/05 03:03:39;;;;;;;0.80;0.70;;;;;;;6.23;79.89;98224.69;4939552;29;20923;-80
2022/01/05 03:06:04;;;;;;;0.60;0.60;;;;;;;6.21;79.44;98240.41;4936177;29;20217;-80
2022/01/05 03:08:30;;;;;;;0.70;0.60;;;;;;;6.21;79.56;98237.81;4950331;28;20303;-80
2022/01/05 03:10:56;;;;;;;0.90;0.70;;;;;;;6.20;79.87;98244.78;4984943;28;20303;-80
2022/01/05 03:13:23;;;;;;;1.00;0.60;;;;;;;6.17;79.73;98229.38;4983392;28;20239;-80
2022/01/05 03:15:51;;;;;;;0.88;0.70;;;;;;;6.17;79.76;98236.34;4982328;28;20483;-81
2022/01/05 03:18:16;;;;;;;0.70;0.70;;;;;;;6.16;79.96;98232.94;4985622;28;20246;-80
2022/01/05 03:20:42;;;;;;;0.90;0.70;;;;;;;6.14;80.00;98233.97;4984755;28;20221;-81
2022/01/05 03:23:07;;;;;;;1.20;0.70;;;;;;;6.12;80.23;98243.66;4985339;28;20315;-80
2022/01/05 03:25:33;;;;;;;1.37;0.60;;;;;;;6.13;80.30;98260.94;4981394;28;20216;-80
2022/01/05 03:27:59;;;;;;;1.30;0.60;;;;;;;6.11;80.33;98273.28;4973659;28;20230;-80
2022/01/05 03:30:27;;;;;;;1.00;0.90;;;;;;;6.09;80.45;98269.94;4981509;28;20214;-80
2022/01/05 03:35:29;;;;;;;1.60;0.80;;;;;;;6.10;80.30;98280.28;4935507;28;20290;-81
2022/01/05 03:37:55;;;;;;;0.70;0.68;;;;;;;6.11;80.30;98283.72;4935548;29;20232;-81
2022/01/05 03:40:21;;;;;;;1.63;0.80;;;;;;;6.11;80.23;98287.13;4933266;29;20217;-80
2022/01/05 03:42:46;;;;;;;0.70;0.63;;;;;;;6.09;80.16;98277.75;4933974;29;20233;-81
2022/01/05 03:45:12;;;;;;;0.90;0.70;;;;;;;6.08;80.08;98282.13;4934697;29;20548;-81
2022/01/05 03:47:37;;;;;;;0.80;0.70;;;;;;;6.08;79.87;98278.69;4933981;29;20206;-81
2022/01/05 03:50:03;;;;;;;0.80;0.80;;;;;;;6.06;80.20;98267.53;4933155;29;20234;-80
2022/01/05 03:52:29;;;;;;;0.90;0.60;;;;;;;6.04;80.05;98265.00;4931360;29;20249;-80
2022/01/05 03:54:54;;;;;;;2.40;0.80;;;;;;;6.04;80.45;98266.78;4928008;29;20217;-81
2022/01/05 03:57:20;;;;;;;0.80;0.70;;;;;;;6.00;80.37;98268.78;4943058;29;20224;-81
2022/01/05 03:59:45;;;;;;;0.73;0.70;;;;;;;5.98;80.53;98275.84;4929574;29;20626;-81
2022/01/05 04:02:11;;;;;;;0.60;0.50;;;;;;;5.96;80.41;98281.16;4930283;29;20201;-80
2022/01/05 04:04:36;;;;;;;0.80;0.60;;;;;;;5.95;80.49;98289.94;4931013;29;20202;-80
2022/01/05 04:07:02;;;;;;;0.80;0.60;;;;;;;5.96;80.18;98295.97;4936752;29;20206;-80
2022/01/05 04:09:28;;;;;;;0.70;0.60;;;;;;;5.95;80.52;98305.56;4931890;29;20202;-80
2022/01/05 04:11:53;;;;;;;0.90;0.70;;;;;;;5.95;80.40;98322.97;4930798;29;20295;-80
2022/01/05 04:14:18;;;;;;;0.80;0.60;;;;;;;5.93;80.28;98323.06;4929035;29;20323;-81
2022/01/05 04:16:44;;;;;;;0.93;0.70;;;;;;;5.94;80.80;98332.56;4927801;29;20201;-81
2022/01/05 04:19:09;;;;;;;1.03;0.80;;;;;;;5.94;80.87;98336.94;4930034;29;20225;-81
2022/01/05 04:21:35;;;;;;;0.70;0.60;;;;;;;5.92;81.20;98339.63;4930312;29;20213;-81
2022/01/05 04:24:00;;;;;;;0.60;0.60;;;;;;;5.92;80.99;98352.66;4930270;29;20230;-81
2022/01/05 04:26:26;;;;;;;0.70;0.70;;;;;;;5.91;81.59;98358.81;4929034;29;20308;-81
2022/01/05 04:28:51;;;;;;;1.00;0.80;;;;;;;5.91;81.40;98370.97;4933554;29;20197;-80
2022/01/05 04:31:17;;;;;;;0.80;0.70;;;;;;;5.92;82.09;98375.28;4934109;29;20501;-81
2022/01/05 04:33:42;;;;;;;0.70;0.63;;;;;;;5.90;82.15;98382.34;4957113;29;20245;-81
2022/01/05 04:36:07;;;;;;;1.37;1.10;;;;;;;5.87;82.32;98399.00;4963055;29;20729;-81
2022/01/05 04:38:33;;;;;;;0.70;0.57;;;;;;;5.86;82.67;98396.50;4962791;28;20693;-83
2022/01/05 04:40:59;;;;;;;0.90;0.70;;;;;;;5.84;82.72;98414.84;4962864;29;20217;-82
2022/01/05 04:43:24;;;;;;;0.80;0.60;;;;;;;5.82;83.14;98419.31;4969456;28;20224;-82
2022/01/05 04:45:50;;;;;;;1.40;0.60;;;;;;;5.82;83.03;98414.09;4967454;28;20213;-81
2022/01/05 04:48:15;;;;;;;0.90;0.60;;;;;;;5.81;82.93;98407.22;4966528;29;20272;-82
2022/01/05 04:50:40;;;;;;;0.70;0.70;;;;;;;5.80;82.63;98402.94;4970343;28;20185;-82
2022/01/05 04:53:07;;;;;;;0.90;0.70;;;;;;;5.79;81.45;98401.28;4957383;29;20229;-81
2022/01/05 04:55:32;;;;;;;0.80;0.73;;;;;;;5.76;80.55;98406.69;4949939;29;20285;-82
2022/01/05 04:57:58;;;;;;;0.70;0.60;;;;;;;5.72;80.38;98413.84;4950520;29;20309;-81
2022/01/05 05:00:23;;;;;;;0.80;0.80;;;;;;;5.70;80.22;98422.69;4953286;29;20209;-82
2022/01/05 05:02:49;;;;;;;1.27;1.00;;;;;;;5.66;79.77;98422.03;4954285;29;20283;-80
2022/01/05 05:05:14;;;;;;;1.00;0.90;;;;;;;5.62;79.65;98428.38;4952561;29;20197;-81
2022/01/05 05:07:40;;;;;;;1.07;1.00;;;;;;;5.61;79.46;98434.50;4948126;29;20280;-81
2022/01/05 05:10:06;;;;;;;1.13;0.90;;;;;;;5.57;78.68;98432.22;4946288;29;20610;-81
2022/01/05 05:12:31;;;;;;;1.00;0.90;;;;;;;5.52;78.53;98441.13;4948246;29;20777;-81
2022/01/05 05:14:56;;;;;;;1.17;0.77;;;;;;;5.49;78.18;98443.09;4948563;29;20240;-81
2022/01/05 05:17:22;;;;;;;1.00;0.90;;;;;;;5.46;77.68;98457.16;4948671;28;20212;-81
2022/01/05 05:19:47;;;;;;;1.20;1.00;;;;;;;5.43;77.63;98462.53;4946717;29;20205;-81
2022/01/05 05:22:13;;;;;;;1.20;0.90;;;;;;;5.42;77.44;98481.69;4931900;29;20495;-82
2022/01/05 05:24:38;;;;;;;2.27;1.13;;;;;;;5.42;76.93;98488.66;4949712;29;20236;-81
2022/01/05 05:27:04;;;;;;;1.97;1.07;;;;;;;5.43;76.82;98492.97;4949163;29;20272;-81
2022/01/05 05:29:29;;;;;;;1.10;1.00;;;;;;;5.40;76.22;98506.16;4950704;28;20204;-82
2022/01/05 05:31:55;;;;;;;1.00;0.90;;;;;;;5.39;75.92;98513.13;4952799;29;20451;-82
2022/01/05 05:34:20;;;;;;;0.80;0.80;;;;;;;5.35;75.84;98516.84;4951465;29;20327;-82
2022/01/05 05:36:46;;;;;;;1.13;0.90;;;;;;;5.35;75.50;98537.69;4952956;29;20228;-82
2022/01/05 05:39:11;;;;;;;1.03;0.93;;;;;;;5.36;75.18;98548.94;4952198;29;20248;-82
2022/01/05 05:41:37;;;;;;;0.80;0.80;;;;;;;5.35;75.52;98548.09;4952405;29;20263;-82
2022/01/05 05:44:02;;;;;;;1.30;1.20;;;;;;;5.31;75.41;98552.63;4952076;29;20217;-82
2022/01/05 05:46:28;;;;;;;1.10;1.00;;;;;;;5.28;75.06;98562.41;4950771;29;20553;-82
2022/01/05 05:48:53;;;;;;;0.93;0.80;;;;;;;5.25;75.11;98558.22;4932460;29;20201;-81
2022/01/05 05:51:19;;;;;;;1.10;1.00;;;;;;;5.23;74.52;98567.03;4952209;29;20209;-82
2022/01/05 05:53:44;;;;;;;0.90;0.80;;;;;;;5.21;74.55;98574.94;4950460;29;20617;-81
2022/01/05 05:56:10;;;;;;;1.10;1.10;;;;;;;5.20;74.56;98585.44;4946406;29;20213;-82
2022/01/05 05:58:35;;;;;;;0.70;0.70;;;;;;;5.17;74.67;98586.47;4949110;29;20480;-81
2022/01/05 06:01:01;;;;;;;1.03;0.80;;;;;;;5.15;74.52;98590.91;4947544;29;20932;-81
2022/01/05 06:03:26;;;;;;;3.70;1.33;;;;;;;5.14;74.49;98596.22;4931958;29;20228;-81
2022/01/05 06:05:51;;;;;;;0.80;0.80;;;;;;;5.14;74.91;98601.44;4947602;29;20235;-81
2022/01/05 06:08:17;;;;;;;0.70;0.67;;;;;;;5.12;75.14;98609.31;4949202;29;20236;-81
2022/01/05 06:10:42;;;;;;;0.80;0.77;;;;;;;5.10;74.94;98613.75;4949488;29;20205;-81
2022/01/05 06:13:08;;;;;;;0.70;0.60;;;;;;;5.05;74.58;98616.66;4950298;29;20233;-81
2022/01/05 06:15:33;;;;;;;0.60;0.60;;;;;;;5.02;74.11;98624.63;4949139;29;20213;-82
2022/01/05 06:17:59;;;;;;;0.70;0.70;;;;;;;4.97;73.44;98618.84;4945669;28;20225;-82
2022/01/05 06:20:24;;;;;;;2.23;0.70;;;;;;;4.90;73.01;98622.69;4945744;29;20319;-81
2022/01/05 06:22:50;;;;;;;0.70;0.60;;;;;;;4.85;73.37;98640.34;4945125;28;20228;-82
2022/01/05 06:25:15;;;;;;;0.70;0.70;;;;;;;4.79;73.17;98644.13;4944726;29;20197;-81
2022/01/05 06:27:41;;;;;;;0.90;0.77;;;;;;;4.80;73.64;98653.59;4947935;29;20283;-81
2022/01/05 06:30:08;;;;;;;0.80;0.80;;;;;;;4.82;73.75;98656.13;4973937;28;20304;-82
2022/01/05 06:32:43;;;;;;;1.00;0.80;;;;;;;4.97;73.79;98657.88;4974534;28;20501;-81
2022/01/05 06:35:09;;;;;;;1.85;0.85;;;;;;;4.95;73.80;98666.69;5021082;23;20255;-75
2022/01/05 06:37:34;;;;;;;1.30;0.87;;;;;;;4.92;74.01;98665.09;4959839;28;20445;-75
2022/01/05 06:39:59;;;;;;;0.90;0.90;;;;;;;4.89;73.67;98673.09;4971195;28;20201;-76
2022/01/05 06:42:25;;;;;;;1.27;0.80;;;;;;;4.90;73.85;98682.56;4973756;28;20326;-75
2022/01/05 06:44:50;;;;;;;1.00;0.87;;;;;;;4.90;73.73;98686.94;4971257;28;20230;-76
2022/01/05 06:47:16;;;;;;;1.00;1.00;;;;;;;4.92;73.71;98698.09;4967656;28;20819;-75
2022/01/05 06:49:42;;;;;;;1.30;1.00;;;;;;;4.90;73.28;98700.78;4969908;28;20199;-74
2022/01/05 06:52:08;;;;;;;1.00;0.90;;;;;;;4.86;72.84;98707.06;4971051;28;20665;-75
2022/01/05 06:54:33;;;;;;;1.20;1.10;;;;;;;4.80;72.79;98707.38;4973428;28;20258;-75
2022/01/05 06:56:59;;;;;;;1.10;0.80;;;;;;;4.74;72.32;98728.53;4972038;28;20204;-76
2022/01/05 06:59:24;;;;;;;2.27;0.97;;;;;;;4.70;72.22;98719.22;4972888;28;20228;-75
2022/01/05 07:01:49;;;;;;;1.93;0.93;;;;;;;4.62;72.03;98725.69;4955970;28;20302;-75
2022/01/05 07:04:15;;;;;;;1.13;0.90;;;;;;;4.57;72.48;98727.69;4970384;28;20377;-76
2022/01/05 07:06:41;;;;;;;0.83;0.80;;;;;;;4.53;72.03;98736.56;4973499;28;20698;-76
2022/01/05 07:09:08;;;;;;;1.70;1.00;;;;;;;4.46;72.01;98743.03;4970997;28;20203;-76
2022/01/05 07:11:35;;;;;;;1.65;0.90;;;;;;;4.40;72.11;98757.19;4969393;28;20207;-75
2022/01/05 07:14:01;;;;;;;0.82;0.82;;;;;;;4.35;71.80;98758.34;4973094;28;20322;-75
2022/01/05 07:16:26;;;;;;;4.73;1.40;;;;;;;4.28;71.36;98756.97;4972483;28;20354;-75
2022/01/05 07:18:52;;;;;;;2.33;1.00;;;;;;;4.20;70.75;98760.78;4974342;28;20633;-76
2022/01/05 07:21:17;;;;;;;1.20;1.10;;;;;;;4.15;70.79;98762.78;4973410;28;20291;-75
2022/01/05 07:23:42;;;;;;;2.17;1.20;;;;;;;4.13;71.09;98769.84;4974835;28;20251;-76
2022/01/05 07:26:08;;;;;;;2.90;1.00;;;;;;;4.13;71.44;98777.66;4973218;28;20286;-76
2022/01/05 07:28:33;;;;;;;1.00;0.90;;;;;;;4.11;71.43;98787.25;4973327;28;20199;-75
2022/01/05 07:30:59;;;;;;;1.10;1.00;;;;;;;4.09;71.67;98788.25;4957644;28;20489;-76
2022/01/05 07:33:26;;;;;;;0.90;0.90;;;;;;;4.05;71.37;98797.13;4971604;28;21448;-76
2022/01/05 07:35:52;;;;;;;2.33;1.10;;;;;;;3.99;71.61;98814.69;4974249;28;20247;-75
2022/01/05 07:38:17;;;;;;;1.17;1.03;;;;;;;3.97;71.38;98820.91;4972181;28;20228;-76
2022/01/05 07:40:43;;;;;;;4.10;1.67;;;;;;;3.95;70.95;98830.53;4972328;28;20221;-76
2022/01/05 07:43:09;;;;;;;1.07;0.97;;;;;;;3.93;71.21;98829.75;4973019;28;20310;-76
2022/01/05 07:45:35;;;;;;;2.47;1.20;;;;;;;3.90;71.22;98833.34;4972809;28;20442;-75
2022/01/05 07:48:02;;;;;;;2.45;1.23;;;;;;;3.89;70.85;98836.00;4973245;28;20498;-76
2022/01/05 07:50:28;;;;;;;3.63;1.27;;;;;;;3.87;71.42;98835.25;4968940;28;20199;-76
2022/01/05 07:52:54;;;;;;;1.97;1.30;;;;;;;3.89;71.13;98836.00;4955618;28;20216;-76
2022/01/05 07:55:19;;;;;;;1.80;1.70;;;;;;;3.90;70.90;98837.69;4958531;28;21023;-76
2022/01/05 07:57:45;;;;;;;2.23;1.63;;;;;;;3.90;70.88;98845.50;4972273;28;20450;-75
2022/01/05 08:00:11;;;;;;;1.50;1.40;;;;;;;3.91;71.18;98847.16;4973910;28;20355;-76
2022/01/05 08:02:36;;;;;;;2.42;1.80;;;;;;;3.93;71.14;98864.38;4971382;28;20195;-76
2022/01/05 08:05:03;;;;;;;1.13;1.03;;;;;;;3.96;70.96;98863.38;4971801;28;20277;-75
2022/01/05 08:07:28;;;;;;;2.47;1.48;;;;;;;3.98;70.76;98866.75;4972093;28;20568;-77
2022/01/05 08:09:53;;;;;;;3.90;1.90;;;;;;;3.98;70.38;98879.75;4969175;28;20665;-76
2022/01/05 08:12:19;;;;;;;1.60;1.50;;;;;;;3.96;70.81;98891.94;4971197;28;20219;-76
2022/01/05 08:14:44;;;;;;;1.50;1.30;;;;;;;3.96;70.22;98902.34;4971532;28;20282;-75
2022/01/05 08:17:10;;;;;;;1.50;1.40;;;;;;;3.96;70.42;98916.19;4971829;28;20303;-75
2022/01/05 08:19:36;;;;;;;2.50;1.40;;;;;;;3.97;70.56;98923.06;4970318;28;20508;-76
2022/01/05 08:22:01;;;;;;;1.90;1.33;;;;;;;3.98;70.65;98921.31;4973831;28;20208;-76
2022/01/05 08:24:27;;;;;;;2.20;1.40;;;;;;;4.02;70.18;98928.03;4972182;28;20231;-76
2022/01/05 08:26:53;;;;;;;3.60;2.63;;;;;;;4.03;69.47;98934.09;4972875;28;20291;-76
2022/01/05 08:29:19;;;;;;;1.53;1.40;;;;;;;4.01;69.53;98941.94;4969790;28;20204;-76
2022/01/05 08:31:45;;;;;;;4.30;1.80;;;;;;;3.99;69.09;98951.56;4974332;28;20500;-75
2022/01/05 08:34:11;;;;;;;1.70;1.60;;;;;;;4.01;69.38;98952.34;4974663;28;20331;-77
2022/01/05 08:36:37;;;;;;;2.20;1.50;;;;;;;4.03;69.40;98950.53;4972060;28;20205;-77
2022/01/05 08:39:03;;;;;;;1.50;1.40;;;;;;;4.04;68.90;98952.19;4975487;28;20228;-77
2022/01/05 08:41:29;;;;;;;2.13;1.55;;;;;;;4.07;69.08;98964.19;4970995;28;20466;-77
2022/01/05 08:43:54;;;;;;;1.63;1.30;;;;;;;4.07;68.85;98961.59;4954223;28;20219;-77
2022/01/05 08:46:20;;;;;;;2.57;1.90;;;;;;;4.07;68.92;98964.19;4971878;28;20219;-77
2022/01/05 08:48:46;;;;;;;10.17;4.10;;;;;;;4.07;68.49;98979.78;4971355;28;20246;-76
2022/01/05 08:51:11;;;;;;;5.27;2.00;;;;;;;4.05;68.59;98979.88;4953897;28;20469;-77
2022/01/05 08:53:37;;;;;;;4.73;2.00;;;;;;;4.07;68.38;98985.81;4970669;28;20215;-77
2022/01/05 08:56:02;;;;;;;2.87;2.13;;;;;;;4.09;67.82;98984.00;4954304;28;20283;-77
2022/01/05 08:58:28;;;;;;;1.53;1.43;;;;;;;4.10;67.22;98985.69;4972477;28;20341;-77
2022/01/05 09:00:53;;;;;;;2.37;1.50;;;;;;;4.10;65.64;98983.09;4971365;28;21042;-77
2022/01/05 09:03:19;;;;;;;2.63;1.50;;;;;;;4.08;65.37;98995.34;4972779;28;20231;-75
2022/01/05 09:05:46;;;;;;;2.70;1.70;;;;;;;4.07;65.15;98998.81;4970959;28;20208;-75
2022/01/05 09:08:12;;;;;;;2.83;1.85;;;;;;;4.07;65.03;98996.22;4969709;28;20282;-75
2022/01/05 09:10:37;;;;;;;3.27;1.77;;;;;;;4.07;64.18;99009.22;4968515;28;20291;-75
2022/01/05 09:13:03;;;;;;;5.50;1.70;;;;;;;4.03;64.02;99009.47;4954092;28;20215;-75
2022/01/05 09:15:30;;;;;;;5.67;1.80;;;;;;;3.97;63.79;99010.59;4951842;28;20223;-75
2022/01/05 09:17:57;;;;;;;5.13;1.60;;;;;;;3.93;64.17;99022.84;4954585;28;20232;-75
2022/01/05 09:20:22;;;;;;;2.85;1.75;;;;;;;3.90;64.14;99022.16;4968521;28;20255;-75
2022/01/05 09:22:48;;;;;;;2.20;1.50;;;;;;;3.84;63.95;99038.03;4972134;28;20440;-75
2022/01/05 09:25:16;;;;;;;2.33;2.17;;;;;;;3.83;64.30;99036.34;4953866;28;20711;-75
2022/01/05 09:27:42;;;;;;;2.30;1.63;;;;;;;3.81;63.98;99051.13;4974402;28;20684;-75
2022/01/05 09:30:10;;;;;;;8.73;2.40;;;;;;;3.81;64.37;99053.72;4972470;28;20242;-75
2022/01/05 09:32:36;;;;;;;4.28;1.95;;;;;;;3.83;64.51;99067.50;4971688;28;20247;-76
2022/01/05 09:35:02;;;;;;;2.42;1.75;;;;;;;3.86;64.02;99072.56;4974046;28;20772;-75
2022/01/05 09:37:32;;;;;;;2.37;1.53;;;;;;;3.89;63.98;99072.41;4953354;28;20298;-75
2022/01/05 09:42:42;;;;;;;3.22;1.63;;;;;;;3.91;63.06;99075.81;4976151;28;20878;-76
2022/01/05 09:45:23;;;;;;;5.50;2.93;;;;;;;3.94;62.95;99086.91;4974557;28;20232;-75
2022/01/05 09:48:10;;;;;;;3.25;2.05;;;;;;;4.13;62.14;99086.94;4969957;28;20821;-76
2022/01/05 09:50:55;;;;;;;3.50;1.60;;;;;;;4.34;61.37;99098.06;4951328;28;20668;-75
2022/01/05 09:53:23;;;;;;;2.40;1.50;;;;;;;4.53;61.17;99107.63;4967223;28;20298;-74
2022/01/05 09:55:51;;;;;;;5.47;2.63;;;;;;;5.19;59.22;99099.25;4969092;28;20751;-76
2022/01/05 09:58:21;;;;;;;3.03;1.70;;;;;;;6.02;56.83;99084.56;4968397;28;20314;-75
2022/01/05 10:00:49;;;;;;;4.05;1.70;;;;;;;6.65;55.45;99080.22;4950036;28;20210;-75
2022/01/05 10:03:14;;;;;;;2.75;1.63;;;;;;;7.80;52.25;99079.66;4951127;28;20700;-75
2022/01/05 10:05:41;;;;;;;2.80;1.63;;;;;;;9.14;48.64;99067.69;4968706;28;20211;-75
2022/01/05 10:08:07;;;;;;;4.70;1.75;;;;;;;10.24;46.16;99077.66;4962071;28;20605;-75
2022/01/05 10:10:33;;;;;;;3.10;1.65;;;;;;;10.91;43.40;99073.75;4969226;28;20231;-76
2022/01/05 10:12:58;;;;;;;3.63;1.53;;;;;;;11.07;41.44;99067.28;4967404;28;20708;-76
2022/01/05 10:15:26;;;;;;;2.63;1.47;;;;;;;10.93;41.48;99072.69;4969492;28;20331;-76
2022/01/05 10:18:08;;;;;;;2.70;1.38;;;;;;;10.67;42.30;99065.91;4973828;28;20219;-76
2022/01/05 10:20:34;;;;;;;3.17;1.55;;;;;;;10.24;41.56;99067.16;4946475;28;20467;-75
2022/01/05 10:22:59;;;;;;;6.30;2.00;;;;;;;9.62;42.88;99075.00;4972904;28;20196;-75
2022/01/05 10:25:24;;;;;;;7.13;1.60;;;;;;;8.99;44.92;99089.66;4971402;28;20227;-75
2022/01/05 10:28:01;;;;;;;2.93;2.00;;;;;;;8.36;46.06;99096.25;4969707;28;20741;-76
2022/01/05 10:30:35;;;;;;;3.08;1.27;;;;;;;7.76;47.59;99089.47;4972266;28;20223;-74
2022/01/05 10:33:00;;;;;;;4.40;1.73;;;;;;;7.39;48.68;99088.22;4971634;28;20203;-75
2022/01/05 10:35:27;;;;;;;2.33;2.07;;;;;;;7.09;49.68;99107.34;4973608;28;20251;-75
2022/01/05 10:38:01;;;;;;;6.57;1.40;;;;;;;6.81;50.73;99115.94;4972348;28;20857;-75
2022/01/05 10:40:27;;;;;;;3.72;1.27;;;;;;;6.60;50.72;99110.13;4966966;28;20485;-75
2022/01/05 10:42:55;;;;;;;4.05;1.70;;;;;;;6.48;50.71;99118.59;4970645;28;20226;-75
2022/01/05 10:45:38;;;;;;;2.60;1.70;;;;;;;6.29;50.71;99121.38;4969703;28;20311;-75
2022/01/05 10:48:09;;;;;;;4.97;1.63;;;;;;;6.23;50.27;99119.09;4973476;28;20204;-75
2022/01/05 10:50:36;;;;;;;4.45;1.80;;;;;;;6.19;50.29;99123.66;4971180;28;20203;-75
2022/01/05 10:53:02;;;;;;;2.90;1.73;;;;;;;6.12;49.75;99127.50;4972518;28;20279;-75
2022/01/05 10:55:30;;;;;;;3.70;1.80;;;;;;;6.02;49.63;99126.28;4970592;28;20231;-75
2022/01/05 10:58:04;;;;;;;1.65;1.38;;;;;;;5.93;50.19;99138.03;4970716;28;20275;-75
2022/01/05 11:00:32;;;;;;;2.90;1.90;;;;;;;5.87;50.48;99123.53;4970114;28;20215;-74
2022/01/05 11:02:58;;;;;;;2.13;1.35;;;;;;;5.90;50.61;99122.53;4969349;28;20199;-75
2022/01/05 11:05:24;;;;;;;3.45;1.42;;;;;;;5.92;50.68;99118.94;4970730;28;20247;-75
2022/01/05 11:07:50;;;;;;;2.30;1.50;;;;;;;6.01;51.24;99114.19;4973209;28;20317;-75
2022/01/05 11:10:18;;;;;;;7.28;3.30;;;;;;;6.08;50.41;99116.41;4970471;28;20207;-76
2022/01/05 11:12:52;;;;;;;4.07;1.50;;;;;;;6.05;50.40;99119.19;4971527;28;20673;-76
2022/01/05 11:15:27;;;;;;;4.00;2.30;;;;;;;6.07;50.33;99122.50;4972869;28;20785;-76
2022/01/05 11:18:09;;;;;;;1.95;1.20;;;;;;;6.10;49.93;99119.78;4971929;28;20258;-76
2022/01/05 11:21:03;;;;;;;2.85;1.30;;;;;;;6.12;50.14;99112.69;4972985;28;20222;-75
2022/01/05 11:23:31;;;;;;;3.05;1.60;;;;;;;6.12;50.15;99107.47;4961748;28;20314;-75
2022/01/05 11:25:58;;;;;;;2.80;1.60;;;;;;;6.07;49.75;99119.91;4972552;28;20291;-76
2022/01/05 11:28:25;;;;;;;6.50;1.70;;;;;;;6.05;49.79;99118.31;4971306;28;20204;-75
2022/01/05 11:30:52;;;;;;;3.17;1.90;;;;;;;6.05;50.07;99120.91;4972827;28;20196;-75
2022/01/05 11:33:19;;;;;;;5.82;1.77;;;;;;;6.01;49.43;99125.47;4972633;28;20220;-75
2022/01/05 11:35:45;;;;;;;4.13;2.25;;;;;;;5.97;50.22;99123.94;4954999;28;20240;-76
2022/01/05 11:38:11;;;;;;;4.75;1.95;;;;;;;5.98;49.77;99117.81;4955018;28;20223;-75
2022/01/05 11:40:44;;;;;;;1.85;1.35;;;;;;;6.00;50.37;99121.19;4970066;28;20207;-75
2022/01/05 11:43:16;;;;;;;3.38;1.65;;;;;;;5.97;49.98;99114.34;4971269;28;20850;-75